Afton, Tennessee
Current Conditions -  °F | °C
As of 5:53 AM on Saturday 20 Dec 2014 (Local Time) from KTRI Reporting Station
Light Rain Light Rain  
Wind Chill: 35°   Ceiling: 3600
Heat Index: 35°   Visibility: 10mi
Dew Point: 30°   Wind: 0mph
Humidity: 82%   Direction: NA
Pressure: 30.17"   Gusts: NA
Location:  36.19°N, 82.74°W
Report Text: KTRI 201053Z 00000KT 10SM -RA OVC036 02/M01 A3017 RMK AO2 SLP214 P0001 T00171011
Loading
Personal Weather Stations






























Interactive Weather Map New forecast layout! Learn more

10-Day Weather Forecast

Advertisements
Track Severe Weather on mobile